Abbottabad Weather



Abbottabad's Current Weather

Temprature 29.66o broken clouds

broken clouds

Rain: 0 %

Min Temprature29.66o
Max Temprature29.66o
Humidity37
Wind Speed1.18 m/h
Sun Rise05:00:53
Sun Set19:22:17
Current Time: 05-Jul-2020 17:25:24
Lat/Lon: 34.15, 73.21




Abbottabad's Geo Location



Abbottabad's Weather Forecast

Time Overall Temp Min Temp Max Temp Humidity Wind Speed Rain
05-Jul-2020 (Sun)
20:00:00 broken clouds 27.660 25.560 27.660 43 0.82 m/h 0 %
23:00:00 light rain 23.470 21.760 23.470 58 2.38 m/h 104 %
06-Jul-2020 (Mon)
02:00:00 light rain 21.460 20.900 21.460 62 2.38 m/h 72 %
05:00:00 light rain 20.500 20.430 20.500 61 2.37 m/h 11 %
08:00:00 broken clouds 26.760 26.760 26.760 41 1.89 m/h 0 %
11:00:00 scattered clouds 32.880 32.880 32.880 26 0.76 m/h 0 %
14:00:00 scattered clouds 33.370 33.370 33.370 25 3.52 m/h 0 %
17:00:00 scattered clouds 32.900 32.900 32.900 25 1.79 m/h 0 %
20:00:00 clear sky 26.620 26.620 26.620 36 0.7 m/h 0 %
23:00:00 clear sky 25.500 25.500 25.500 36 1.86 m/h 0 %
07-Jul-2020 (Tue)
02:00:00 scattered clouds 24.340 24.340 24.340 41 2.77 m/h 0 %
05:00:00 few clouds 23.220 23.220 23.220 45 3.31 m/h 0 %
08:00:00 clear sky 30.380 30.380 30.380 32 1.94 m/h 0 %
11:00:00 few clouds 33.880 33.880 33.880 24 2.9 m/h 0 %
14:00:00 scattered clouds 35.720 35.720 35.720 21 2.8 m/h 0 %
17:00:00 scattered clouds 34.520 34.520 34.520 22 2.32 m/h 0 %
20:00:00 few clouds 28.490 28.490 28.490 29 0.5 m/h 0 %
23:00:00 few clouds 27.330 27.330 27.330 30 2.05 m/h 0 %
08-Jul-2020 (Wed)
02:00:00 scattered clouds 26.770 26.770 26.770 32 2.79 m/h 0 %
05:00:00 scattered clouds 25.470 25.470 25.470 35 1.95 m/h 0 %
08:00:00 clear sky 30.840 30.840 30.840 31 0.64 m/h 0 %
11:00:00 clear sky 34.500 34.500 34.500 25 3.61 m/h 0 %
14:00:00 clear sky 35.940 35.940 35.940 22 3.49 m/h 0 %
17:00:00 clear sky 35.680 35.680 35.680 22 2.76 m/h 0 %
20:00:00 clear sky 29.230 29.230 29.230 32 1.26 m/h 0 %
23:00:00 clear sky 27.970 27.970 27.970 33 1.95 m/h 0 %
09-Jul-2020 (Thu)
02:00:00 clear sky 26.050 26.050 26.050 39 2.11 m/h 0 %
05:00:00 few clouds 25.040 25.040 25.040 45 2 m/h 0 %
08:00:00 clear sky 30.740 30.740 30.740 38 0.78 m/h 0 %
11:00:00 clear sky 34.780 34.780 34.780 29 3.23 m/h 0 %
14:00:00 clear sky 36.350 36.350 36.350 26 4.59 m/h 0 %
17:00:00 few clouds 35.600 35.600 35.600 25 3.99 m/h 0 %
20:00:00 light rain 27.400 27.400 27.400 47 3.9 m/h 33 %
23:00:00 light rain 23.230 23.230 23.230 64 4.9 m/h 184 %
10-Jul-2020 (Fri)
02:00:00 light rain 21.930 21.930 21.930 68 3.5 m/h 300 %
05:00:00 light rain 21.570 21.570 21.570 72 1.42 m/h 260 %
08:00:00 light rain 26.330 26.330 26.330 54 0.77 m/h 101 %
11:00:00 few clouds 31.440 31.440 31.440 40 3.09 m/h 0 %
14:00:00 clear sky 33.090 33.090 33.090 36 3.69 m/h 0 %
17:00:00 clear sky 32.520 32.520 32.520 36 3.1 m/h 0 %


Abbottabad's Tourist Spots

Historical Places in Abbottabad

Famous Cities (60)